createdAt,value
2019-03-24T00:00:24.666Z,86.30
2019-03-24T00:03:00.690Z,86.57
2019-03-24T00:05:35.839Z,86.93
2019-03-24T00:08:06.227Z,88.07
2019-03-24T00:10:36.581Z,95.43
2019-03-24T00:13:09.474Z,94.40
2019-03-24T00:15:39.951Z,91.93
2019-03-24T00:18:10.808Z,83.93
2019-03-24T00:20:41.559Z,87.80
2019-03-24T00:23:14.698Z,88.77
2019-03-24T00:25:46.169Z,83.37
2019-03-24T00:28:15.910Z,80.67
2019-03-24T00:30:46.765Z,80.40
2019-03-24T00:33:31.848Z,79.17
2019-03-24T00:36:05.624Z,81.63
2019-03-24T00:38:37.686Z,84.97
2019-03-24T00:41:07.405Z,82.73
2019-03-24T00:43:37.182Z,89.27
2019-03-24T00:46:10.672Z,89.53
2019-03-24T00:48:43.386Z,91.40
2019-03-24T00:51:13.294Z,93.90
2019-03-24T00:53:43.557Z,99.27
2019-03-24T00:56:13.282Z,94.93
2019-03-24T00:58:43.087Z,100.20
2019-03-24T01:01:12.905Z,92.60
2019-03-24T01:03:43.550Z,95.00
2019-03-24T01:06:13.979Z,97.77
2019-03-24T01:08:45.708Z,95.80
2019-03-24T01:11:16.465Z,94.53
2019-03-24T01:13:46.542Z,94.63
2019-03-24T01:16:17.091Z,94.77
2019-03-24T01:18:46.847Z,91.03
2019-03-24T01:21:16.771Z,95.50
2019-03-24T01:23:46.622Z,94.57
2019-03-24T01:26:16.353Z,99.10
2019-03-24T01:28:46.201Z,94.30
2019-03-24T01:31:16.049Z,94.73
2019-03-24T01:33:47.090Z,94.07
2019-03-24T01:36:20.871Z,88.90
2019-03-24T01:39:00.391Z,92.63
2019-03-24T01:41:30.577Z,85.70
2019-03-24T01:44:02.537Z,90.97
2019-03-24T01:46:33.029Z,93.77
2019-03-24T01:49:02.817Z,86.23
2019-03-24T01:51:34.324Z,92.73
2019-03-24T01:54:05.100Z,98.87
2019-03-24T01:56:35.739Z,90.70
2019-03-24T01:59:05.504Z,91.87
2019-03-24T02:01:35.579Z,85.30
2019-03-24T02:04:06.878Z,87.67
2019-03-24T02:06:38.698Z,92.00
2019-03-24T02:09:09.253Z,92.97
2019-03-24T02:11:44.471Z,97.60
2019-03-24T02:14:14.220Z,98.97
2019-03-24T02:16:45.159Z,92.57
2019-03-24T02:19:15.258Z,89.93
2019-03-24T02:21:45.436Z,87.33
2019-03-24T02:24:15.816Z,90.53
2019-03-24T02:26:47.174Z,94.07
2019-03-24T02:29:18.179Z,86.30
2019-03-24T02:31:48.737Z,89.97
2019-03-24T02:34:18.496Z,94.50
2019-03-24T02:36:48.985Z,83.60
2019-03-24T02:39:19.566Z,97.17
2019-03-24T02:41:50.140Z,92.37
2019-03-24T02:44:25.945Z,88.20
2019-03-24T02:46:56.015Z,89.43
2019-03-24T02:49:27.247Z,89.17
2019-03-24T02:51:56.989Z,95.77
2019-03-24T02:54:31.289Z,91.77
2019-03-24T02:57:01.544Z,93.83
2019-03-24T02:59:36.932Z,100.63
2019-03-24T03:02:07.752Z,104.43
2019-03-24T03:04:38.196Z,101.47
2019-03-24T03:07:12.156Z,118.50
2019-03-24T03:09:43.045Z,116.67
2019-03-24T03:12:14.399Z,111.63
2019-03-24T03:14:44.130Z,112.83
2019-03-24T03:17:14.134Z,118.00
2019-03-24T03:19:48.990Z,120.53
2019-03-24T03:22:18.902Z,126.17
2019-03-24T03:24:49.272Z,116.40
2019-03-24T03:27:19.873Z,112.50
2019-03-24T03:29:50.065Z,112.30
2019-03-24T03:32:20.101Z,114.30
2019-03-24T03:34:49.846Z,109.33
2019-03-24T03:37:20.443Z,112.90
2019-03-24T03:39:50.894Z,107.20
2019-03-24T03:42:20.658Z,114.03
2019-03-24T03:44:51.674Z,107.80
2019-03-24T03:47:21.409Z,115.57
2019-03-24T03:49:51.741Z,113.30
2019-03-24T03:52:21.820Z,110.60
2019-03-24T03:54:53.331Z,107.17
2019-03-24T03:57:24.040Z,98.43
2019-03-24T03:59:54.472Z,97.47
2019-03-24T04:02:26.325Z,96.93
2019-03-24T04:04:56.020Z,95.83
2019-03-24T04:07:26.327Z,94.03
2019-03-24T04:09:56.419Z,101.73
2019-03-24T04:12:28.504Z,91.97
2019-03-24T04:14:58.972Z,87.87
2019-03-24T04:17:28.681Z,90.83
2019-03-24T04:20:00.945Z,88.83
2019-03-24T04:22:33.981Z,89.77
2019-03-24T04:25:03.732Z,86.77
2019-03-24T04:27:33.800Z,88.83
2019-03-24T04:30:03.843Z,85.37
2019-03-24T04:32:33.828Z,81.13
2019-03-24T04:35:05.723Z,86.53
2019-03-24T04:37:41.632Z,81.87
2019-03-24T04:40:15.203Z,82.83
2019-03-24T04:42:45.739Z,80.60
2019-03-24T04:45:16.125Z,87.30
2019-03-24T04:47:47.445Z,81.00
2019-03-24T04:50:21.617Z,79.83
2019-03-24T04:52:52.002Z,72.60
2019-03-24T04:55:24.126Z,78.67
2019-03-24T04:57:53.824Z,75.83
2019-03-24T05:00:35.782Z,80.57
2019-03-24T05:03:07.198Z,74.53
2019-03-24T05:05:37.733Z,78.27
2019-03-24T05:08:11.188Z,70.63
2019-03-24T05:10:48.595Z,68.47
2019-03-24T05:13:19.471Z,65.17
2019-03-24T05:15:52.900Z,74.97
2019-03-24T05:18:23.154Z,72.77
2019-03-24T05:20:53.530Z,68.73
2019-03-24T05:23:25.349Z,70.23
2019-03-24T05:25:55.408Z,71.77
2019-03-24T05:28:26.025Z,72.47
2019-03-24T05:30:56.947Z,72.40
2019-03-24T05:33:27.754Z,66.53
2019-03-24T05:35:58.852Z,68.77
2019-03-24T05:38:31.451Z,63.63
2019-03-24T05:41:02.024Z,71.27
2019-03-24T05:43:37.786Z,69.43
2019-03-24T05:46:09.891Z,70.07
2019-03-24T05:48:40.978Z,65.13
2019-03-24T05:51:13.841Z,71.17
2019-03-24T05:53:44.310Z,71.03
2019-03-24T05:56:14.431Z,74.57
2019-03-24T05:58:44.142Z,72.37
2019-03-24T06:01:14.872Z,71.03
2019-03-24T06:03:46.373Z,65.80
2019-03-24T06:06:16.923Z,68.33
2019-03-24T06:08:50.269Z,64.87
2019-03-24T06:11:24.436Z,70.27
2019-03-24T06:14:02.874Z,69.67
2019-03-24T06:16:34.762Z,74.33
2019-03-24T06:19:05.230Z,68.80
2019-03-24T06:21:37.517Z,66.00
2019-03-24T06:24:09.097Z,67.33
2019-03-24T06:26:39.087Z,73.63
2019-03-24T06:29:08.812Z,72.37
2019-03-24T06:31:42.923Z,71.27
2019-03-24T06:34:13.468Z,64.93
2019-03-24T06:36:45.202Z,70.10
2019-03-24T06:39:22.024Z,63.20
2019-03-24T06:41:52.028Z,64.87
2019-03-24T06:44:26.286Z,65.07
2019-03-24T06:46:57.436Z,70.60
2019-03-24T06:49:28.287Z,69.73
2019-03-24T06:52:00.447Z,76.63
2019-03-24T06:54:36.801Z,73.40
2019-03-24T06:57:08.604Z,77.77
2019-03-24T06:59:44.030Z,81.10
2019-03-24T07:02:14.853Z,81.57
2019-03-24T07:04:46.163Z,74.87
2019-03-24T07:07:17.443Z,70.53
2019-03-24T07:09:48.667Z,72.90
2019-03-24T07:12:19.954Z,66.30
2019-03-24T07:14:49.984Z,69.60
2019-03-24T07:17:20.324Z,69.80
2019-03-24T07:19:51.442Z,65.23
2019-03-24T07:22:26.820Z,70.10
2019-03-24T07:24:58.051Z,68.10
2019-03-24T07:27:30.061Z,66.93
2019-03-24T07:30:01.423Z,60.73
2019-03-24T07:32:31.824Z,65.10
2019-03-24T07:35:01.822Z,66.57
2019-03-24T07:37:31.581Z,64.03
2019-03-24T07:40:02.547Z,64.77
2019-03-24T07:42:33.354Z,66.40
2019-03-24T07:45:03.110Z,59.27
2019-03-24T07:47:35.318Z,64.83
2019-03-24T07:50:13.011Z,62.77
2019-03-24T07:52:43.907Z,60.37
2019-03-24T07:55:13.715Z,62.53
2019-03-24T07:57:44.458Z,59.63
2019-03-24T08:00:16.222Z,65.90
2019-03-24T08:02:55.728Z,60.70
2019-03-24T08:05:25.764Z,61.10
2019-03-24T08:07:55.519Z,65.47
2019-03-24T08:10:26.861Z,57.97
2019-03-24T08:12:56.740Z,60.63
2019-03-24T08:15:27.670Z,70.50
2019-03-24T08:17:57.516Z,65.20
2019-03-24T08:20:27.364Z,64.07
2019-03-24T08:22:59.251Z,67.10
2019-03-24T08:25:31.672Z,67.03
2019-03-24T08:28:02.531Z,62.00
2019-03-24T08:30:38.244Z,60.07
2019-03-24T08:33:09.337Z,57.27
2019-03-24T08:35:40.481Z,59.83
2019-03-24T08:38:10.706Z,62.23
2019-03-24T08:40:40.505Z,57.23
2019-03-24T08:43:11.215Z,58.47
2019-03-24T08:45:40.974Z,62.87
2019-03-24T08:48:12.152Z,55.90
2019-03-24T08:50:42.172Z,56.70
2019-03-24T08:53:12.632Z,58.77
2019-03-24T08:55:46.053Z,54.77
2019-03-24T08:58:16.177Z,58.30
2019-03-24T09:00:46.801Z,54.03
2019-03-24T09:03:16.533Z,52.77
2019-03-24T09:05:46.952Z,55.40
2019-03-24T09:08:17.080Z,59.27
2019-03-24T09:10:46.838Z,60.60
2019-03-24T09:13:16.597Z,56.57
2019-03-24T09:15:46.744Z,55.73
2019-03-24T09:18:16.831Z,56.53
2019-03-24T09:20:46.608Z,53.63
2019-03-24T09:23:16.366Z,57.47
2019-03-24T09:25:49.966Z,55.67
2019-03-24T09:28:20.608Z,59.07
2019-03-24T09:30:51.300Z,53.60
2019-03-24T09:33:21.049Z,54.70
2019-03-24T09:35:51.827Z,50.53
2019-03-24T09:38:22.526Z,59.23
2019-03-24T09:40:54.081Z,51.20
2019-03-24T09:43:23.824Z,48.90
2019-03-24T09:45:56.069Z,49.00
2019-03-24T09:48:25.170Z,56.17
2019-03-24T09:50:58.276Z,52.67
2019-03-24T09:53:30.109Z,51.47
2019-03-24T09:56:01.662Z,50.67
2019-03-24T09:58:32.679Z,48.37
2019-03-24T10:01:03.663Z,53.50
2019-03-24T10:03:36.564Z,46.63
2019-03-24T10:06:15.111Z,46.17
2019-03-24T10:08:47.385Z,50.93
2019-03-24T10:11:16.914Z,51.10
2019-03-24T10:13:46.657Z,46.17
2019-03-24T10:16:16.416Z,47.93
2019-03-24T10:18:46.151Z,55.07
2019-03-24T10:21:15.919Z,52.03
2019-03-24T10:23:46.055Z,44.27
2019-03-24T10:26:16.100Z,48.50
2019-03-24T10:28:46.645Z,41.93
2019-03-24T10:31:16.393Z,46.93
2019-03-24T10:33:46.157Z,47.23
2019-03-24T10:36:15.926Z,49.63
2019-03-24T10:38:45.796Z,50.07
2019-03-24T10:41:18.109Z,45.43
2019-03-24T10:43:48.629Z,45.73
2019-03-24T10:46:20.344Z,45.50
2019-03-24T10:48:50.562Z,47.30
2019-03-24T10:51:25.245Z,47.23
2019-03-24T10:53:57.617Z,43.83
2019-03-24T10:56:28.145Z,42.17
2019-03-24T10:58:57.922Z,44.07
2019-03-24T11:01:33.617Z,44.17
2019-03-24T11:04:04.534Z,42.87
2019-03-24T11:06:35.068Z,43.53
2019-03-24T11:09:06.131Z,44.53
2019-03-24T11:11:35.869Z,41.73
2019-03-24T11:14:05.642Z,41.37
2019-03-24T11:16:35.375Z,43.40
2019-03-24T11:19:05.993Z,40.50
2019-03-24T11:21:37.802Z,44.30
2019-03-24T11:24:08.495Z,39.50
2019-03-24T11:26:38.234Z,45.00
2019-03-24T11:29:09.416Z,47.43
2019-03-24T11:31:39.541Z,44.17
2019-03-24T11:34:21.737Z,48.87
2019-03-24T11:36:51.480Z,49.87
2019-03-24T11:39:21.252Z,46.90
2019-03-24T11:41:55.272Z,51.47
2019-03-24T11:44:25.849Z,48.87
2019-03-24T11:46:57.836Z,44.30
2019-03-24T11:49:27.994Z,45.13
2019-03-24T11:51:58.261Z,51.00
2019-03-24T11:54:30.473Z,39.97
2019-03-24T11:57:02.304Z,45.00
2019-03-24T11:59:32.274Z,40.13
2019-03-24T12:02:24.472Z,39.60
2019-03-24T12:04:57.931Z,39.93
2019-03-24T12:07:33.398Z,36.77
2019-03-24T12:10:10.366Z,33.57
2019-03-24T12:12:53.865Z,33.47
2019-03-24T12:15:24.617Z,33.90
2019-03-24T12:18:17.981Z,33.97
2019-03-24T12:20:49.628Z,32.70
2019-03-24T12:23:41.466Z,33.80
2019-03-24T12:26:16.323Z,29.90
2019-03-24T12:28:48.989Z,29.93
2019-03-24T12:31:21.468Z,30.60
2019-03-24T12:33:56.928Z,28.57
2019-03-24T12:36:29.025Z,30.97
2019-03-24T12:38:59.094Z,29.20
2019-03-24T12:41:28.887Z,30.40
2019-03-24T12:44:02.154Z,30.00
2019-03-24T12:47:00.114Z,34.67
2019-03-24T12:49:32.315Z,30.47
2019-03-24T12:52:05.118Z,31.57
2019-03-24T12:54:36.981Z,29.70
2019-03-24T12:57:09.266Z,30.37
2019-03-24T12:59:46.103Z,30.03
2019-03-24T13:02:16.540Z,31.13
2019-03-24T13:04:48.924Z,32.40
2019-03-24T13:07:19.359Z,32.77
2019-03-24T13:09:50.200Z,31.33
2019-03-24T13:12:20.018Z,32.83
2019-03-24T13:14:50.381Z,31.10
2019-03-24T13:17:20.722Z,29.57
2019-03-24T13:19:51.338Z,30.63
2019-03-24T13:22:26.687Z,28.97
2019-03-24T13:24:58.422Z,27.33
2019-03-24T13:27:34.617Z,27.80
2019-03-24T13:30:04.917Z,24.80
2019-03-24T13:32:35.847Z,26.30
2019-03-24T13:35:06.362Z,29.37
2019-03-24T13:37:37.637Z,28.93
2019-03-24T13:40:09.388Z,29.40
2019-03-24T13:42:59.443Z,29.17
2019-03-24T13:45:30.216Z,31.83
2019-03-24T13:48:00.733Z,27.63
2019-03-24T13:50:31.876Z,32.50
2019-03-24T13:53:03.593Z,29.63
2019-03-24T13:55:34.305Z,29.67
2019-03-24T13:58:05.235Z,27.73
2019-03-24T14:00:37.355Z,27.43
2019-03-24T14:03:27.529Z,25.20
2019-03-24T14:05:57.602Z,23.63
2019-03-24T14:08:27.636Z,27.77
2019-03-24T14:10:58.571Z,23.67
2019-03-24T14:13:28.619Z,24.90
2019-03-24T14:16:00.699Z,23.67
2019-03-24T14:18:31.003Z,21.30
2019-03-24T14:21:03.480Z,23.33
2019-03-24T14:23:34.737Z,23.20
2019-03-24T14:26:08.599Z,24.37
2019-03-24T14:28:40.396Z,22.40
2019-03-24T14:31:11.088Z,22.13
2019-03-24T14:33:44.000Z,23.10
2019-03-24T14:36:16.077Z,22.90
2019-03-24T14:38:48.021Z,22.67
2019-03-24T14:41:21.421Z,22.40
2019-03-24T14:43:58.281Z,24.80
2019-03-24T14:46:29.913Z,25.90
2019-03-24T14:49:00.644Z,25.33
2019-03-24T14:51:31.215Z,22.63
2019-03-24T14:54:01.598Z,25.83
2019-03-24T14:56:34.064Z,22.30
2019-03-24T14:59:06.351Z,22.47
2019-03-24T15:01:39.033Z,23.10
2019-03-24T15:04:10.803Z,23.97
2019-03-24T15:06:45.344Z,25.30
2019-03-24T15:09:19.231Z,25.03
2019-03-24T15:11:50.800Z,21.10
2019-03-24T15:14:20.552Z,22.37
2019-03-24T15:16:54.873Z,22.50
2019-03-24T15:19:27.205Z,25.67
2019-03-24T15:21:57.262Z,20.90
2019-03-24T15:24:32.032Z,22.80
2019-03-24T15:27:04.553Z,22.87
2019-03-24T15:29:34.637Z,23.23
2019-03-24T15:32:06.168Z,23.73
2019-03-24T15:34:36.254Z,21.17
2019-03-24T15:37:09.714Z,24.23
2019-03-24T15:39:40.399Z,23.87
2019-03-24T15:42:13.722Z,22.27
2019-03-24T15:44:44.128Z,20.87
2019-03-24T15:47:15.494Z,21.30
2019-03-24T15:49:46.946Z,22.70
2019-03-24T15:52:17.393Z,22.27
2019-03-24T15:54:47.414Z,19.53
2019-03-24T15:57:23.407Z,22.03
2019-03-24T15:59:54.549Z,16.77
2019-03-24T16:02:29.976Z,18.63
2019-03-24T16:05:00.516Z,16.57
2019-03-24T16:07:30.302Z,18.90
2019-03-24T16:10:01.369Z,16.67
2019-03-24T16:12:31.139Z,17.83
2019-03-24T16:15:01.443Z,17.37
2019-03-24T16:17:31.198Z,18.70
2019-03-24T16:20:01.303Z,18.27
2019-03-24T16:22:31.451Z,17.40
2019-03-24T16:25:01.240Z,19.60
2019-03-24T16:27:31.871Z,17.70
2019-03-24T16:30:02.110Z,20.43
2019-03-24T16:32:31.988Z,18.97
2019-03-24T16:35:20.891Z,18.27
2019-03-24T16:37:50.902Z,18.20
2019-03-24T16:40:21.887Z,19.77
2019-03-24T16:42:53.938Z,20.53
2019-03-24T16:45:24.941Z,19.27
2019-03-24T16:47:55.811Z,19.53
2019-03-24T16:50:27.939Z,19.93
2019-03-24T16:53:18.331Z,17.80
2019-03-24T16:55:50.084Z,16.30
2019-03-24T16:58:20.428Z,18.97
2019-03-24T17:01:01.154Z,20.80
2019-03-24T17:03:32.628Z,17.03
2019-03-24T17:06:03.181Z,19.33
2019-03-24T17:08:33.469Z,23.07
2019-03-24T17:11:08.020Z,20.07
2019-03-24T17:13:39.229Z,18.50
2019-03-24T17:16:09.757Z,18.17
2019-03-24T17:18:40.088Z,22.93
2019-03-24T17:21:12.998Z,21.70
2019-03-24T17:23:44.903Z,26.47
2019-03-24T17:26:14.654Z,25.10
2019-03-24T17:28:47.107Z,22.63
2019-03-24T17:31:17.112Z,23.13
2019-03-24T17:33:46.897Z,29.20
2019-03-24T17:36:17.865Z,26.03
2019-03-24T17:38:47.936Z,24.00
2019-03-24T17:41:18.405Z,19.77
2019-03-24T17:43:48.124Z,23.63
2019-03-24T17:46:19.529Z,24.47
2019-03-24T17:48:53.264Z,27.03
2019-03-24T17:51:23.425Z,19.87
2019-03-24T17:53:53.195Z,16.30
2019-03-24T17:56:31.868Z,19.30
2019-03-24T17:59:01.913Z,16.10
2019-03-24T18:01:33.344Z,18.77
2019-03-24T18:04:05.710Z,16.73
2019-03-24T18:06:35.467Z,19.07
2019-03-24T18:09:07.821Z,22.43
2019-03-24T18:11:39.315Z,18.13
2019-03-24T18:14:09.470Z,16.03
2019-03-24T18:16:39.549Z,18.33
2019-03-24T18:19:10.567Z,12.00
2019-03-24T18:21:40.333Z,15.93
2019-03-24T18:24:10.076Z,13.90
2019-03-24T18:26:39.921Z,15.30
2019-03-24T18:29:10.048Z,14.33
2019-03-24T18:31:40.162Z,16.37
2019-03-24T18:34:12.050Z,13.17
2019-03-24T18:36:43.830Z,14.53
2019-03-24T18:39:14.779Z,11.67
2019-03-24T18:41:46.705Z,9.87
2019-03-24T18:44:19.953Z,11.70
2019-03-24T18:46:50.002Z,10.23
2019-03-24T18:49:20.285Z,11.33
2019-03-24T18:51:53.030Z,10.13
2019-03-24T18:54:24.718Z,11.33
2019-03-24T18:56:54.746Z,9.57
2019-03-24T18:59:25.059Z,10.10
2019-03-24T19:01:58.155Z,8.87
2019-03-24T19:04:29.595Z,7.53
2019-03-24T19:06:59.600Z,8.57
2019-03-24T19:09:29.803Z,8.10
2019-03-24T19:12:00.176Z,8.37
2019-03-24T19:14:32.274Z,11.83
2019-03-24T19:17:05.313Z,9.23
2019-03-24T19:19:35.460Z,9.60
2019-03-24T19:22:05.978Z,11.47
2019-03-24T19:24:38.076Z,13.87
2019-03-24T19:27:11.123Z,10.53
2019-03-24T19:29:41.031Z,15.13
2019-03-24T19:32:16.615Z,11.53
2019-03-24T19:34:50.605Z,9.80
2019-03-24T19:37:23.100Z,11.73
2019-03-24T19:39:58.456Z,10.57
2019-03-24T19:42:29.011Z,9.40
2019-03-24T19:44:59.160Z,14.60
2019-03-24T19:47:29.246Z,12.50
2019-03-24T19:49:59.495Z,10.43
2019-03-24T19:52:29.960Z,11.40
2019-03-24T19:55:03.463Z,10.57
2019-03-24T19:57:33.217Z,10.07
2019-03-24T20:00:03.241Z,7.33
2019-03-24T20:02:34.780Z,14.50
2019-03-24T20:05:06.743Z,10.87
2019-03-24T20:07:47.360Z,14.23
2019-03-24T20:10:11.740Z,10.30
2019-03-24T20:12:42.762Z,13.20
2019-03-24T20:15:14.632Z,14.10
2019-03-24T20:17:54.086Z,9.33
2019-03-24T20:20:23.867Z,14.83
2019-03-24T20:22:57.192Z,13.03
2019-03-24T20:25:28.518Z,17.03
2019-03-24T20:28:03.796Z,13.40
2019-03-24T20:30:34.763Z,14.53
2019-03-24T20:33:05.164Z,13.00
2019-03-24T20:35:38.320Z,9.33
2019-03-24T20:38:10.655Z,12.90
2019-03-24T20:40:43.083Z,12.87
2019-03-24T20:43:16.223Z,13.67
2019-03-24T20:45:46.386Z,10.93
2019-03-24T20:48:16.417Z,11.23
2019-03-24T20:50:59.943Z,10.73
2019-03-24T20:53:30.708Z,8.50
2019-03-24T20:56:11.724Z,11.93
2019-03-24T20:58:42.891Z,13.77
2019-03-24T21:01:12.680Z,12.63
2019-03-24T21:04:12.676Z,9.10
2019-03-24T21:06:55.747Z,14.50
2019-03-24T21:09:29.109Z,12.53
2019-03-24T21:11:59.557Z,11.83
2019-03-24T21:14:29.293Z,13.10
2019-03-24T21:17:00.846Z,13.30
2019-03-24T21:19:33.337Z,9.90
2019-03-24T21:22:04.579Z,14.03
2019-03-24T21:24:34.399Z,9.23
2019-03-24T21:27:07.282Z,11.13
2019-03-24T21:29:37.824Z,11.40
2019-03-24T21:32:08.050Z,11.17
2019-03-24T21:34:40.135Z,13.77
2019-03-24T21:37:09.883Z,9.27
2019-03-24T21:39:40.257Z,12.80
2019-03-24T21:42:11.206Z,10.00
2019-03-24T21:44:40.949Z,11.77
2019-03-24T21:47:13.855Z,12.10
2019-03-24T21:49:43.873Z,12.20
2019-03-24T21:52:13.992Z,10.20
2019-03-24T21:54:44.439Z,12.27
2019-03-24T21:57:17.404Z,7.83
2019-03-24T21:59:47.936Z,9.97
2019-03-24T22:02:19.542Z,10.07
2019-03-24T22:04:49.373Z,12.40
2019-03-24T22:07:19.150Z,8.43
2019-03-24T22:09:50.300Z,9.13
2019-03-24T22:12:20.771Z,11.47
2019-03-24T22:14:50.514Z,8.53
2019-03-24T22:17:20.529Z,13.13
2019-03-24T22:19:52.870Z,6.30
2019-03-24T22:22:26.920Z,13.50
2019-03-24T22:24:57.888Z,9.03
2019-03-24T22:27:29.009Z,13.00
2019-03-24T22:30:11.116Z,9.47
2019-03-24T22:32:40.907Z,11.13
2019-03-24T22:35:11.735Z,10.37
2019-03-24T22:37:41.605Z,9.47
2019-03-24T22:40:12.896Z,12.07
2019-03-24T22:42:44.168Z,11.10
2019-03-24T22:45:15.121Z,10.73
2019-03-24T22:47:46.010Z,8.60
2019-03-24T22:50:15.899Z,8.17
2019-03-24T22:52:46.015Z,11.07
2019-03-24T22:55:17.492Z,10.90
2019-03-24T22:57:47.989Z,13.73
2019-03-24T23:00:37.078Z,8.67
2019-03-24T23:03:17.354Z,12.13
2019-03-24T23:05:47.503Z,13.23
2019-03-24T23:08:19.659Z,8.87
2019-03-24T23:10:50.269Z,8.67
2019-03-24T23:13:20.241Z,8.03
2019-03-24T23:15:50.419Z,7.47
2019-03-24T23:18:23.191Z,7.43
2019-03-24T23:20:54.312Z,9.40
2019-03-24T23:23:25.525Z,7.57
2019-03-24T23:25:56.296Z,10.40
2019-03-24T23:28:26.833Z,10.50
2019-03-24T23:30:57.293Z,10.80
2019-03-24T23:33:27.025Z,7.97
2019-03-24T23:35:58.108Z,12.47
2019-03-24T23:38:28.326Z,8.77
2019-03-24T23:41:03.986Z,9.50
2019-03-24T23:43:33.912Z,6.37
2019-03-24T23:46:04.320Z,7.73
2019-03-24T23:48:34.699Z,10.80
2019-03-24T23:51:06.817Z,10.00
2019-03-24T23:53:38.891Z,8.70
2019-03-24T23:56:08.637Z,13.37
2019-03-24T23:58:41.072Z,7.17
